createdAt,value
2022-08-05T00:01:27.756Z,9.30
2022-08-05T00:03:57.068Z,9.50
2022-08-05T00:06:32.449Z,10.15
2022-08-05T00:09:00.770Z,8.13
2022-08-05T00:11:34.450Z,7.25
2022-08-05T00:14:12.716Z,10.73
2022-08-05T00:16:53.441Z,10.75
2022-08-05T00:19:22.684Z,10.02
2022-08-05T00:21:50.665Z,9.05
2022-08-05T00:24:24.081Z,7.13
2022-08-05T00:26:53.025Z,8.25
2022-08-05T00:29:25.193Z,7.50
2022-08-05T00:32:12.906Z,11.63
2022-08-05T00:34:54.485Z,8.18
2022-08-05T00:37:28.899Z,12.00
2022-08-05T00:40:17.804Z,5.88
2022-08-05T00:42:55.137Z,7.82
2022-08-05T00:45:28.220Z,7.97
2022-08-05T00:48:09.282Z,7.32
2022-08-05T00:50:37.574Z,5.18
2022-08-05T00:53:09.824Z,9.30
2022-08-05T00:55:51.678Z,7.63
2022-08-05T00:58:19.349Z,5.70
2022-08-05T01:00:47.676Z,10.30
2022-08-05T01:03:22.611Z,6.03
2022-08-05T01:05:54.625Z,8.45
2022-08-05T01:08:41.801Z,8.88
2022-08-05T01:11:33.231Z,11.52
2022-08-05T01:14:11.859Z,10.65
2022-08-05T01:16:54.138Z,10.02
2022-08-05T01:19:56.078Z,6.35
2022-08-05T01:23:15.079Z,9.10
2022-08-05T01:26:05.713Z,13.52
2022-08-05T01:28:51.848Z,4.35
2022-08-05T01:31:45.399Z,5.10
2022-08-05T01:34:27.045Z,9.75
2022-08-05T01:37:05.801Z,5.35
2022-08-05T01:39:47.205Z,14.60
2022-08-05T01:42:19.394Z,9.77
2022-08-05T01:44:54.350Z,7.07
2022-08-05T01:47:24.147Z,9.40
2022-08-05T01:50:02.197Z,9.20
2022-08-05T01:52:32.553Z,7.43
2022-08-05T01:55:04.634Z,8.52
2022-08-05T01:58:10.721Z,8.18
2022-08-05T02:00:30.070Z,6.55
2022-08-05T02:05:36.719Z,13.35
2022-08-05T02:08:04.728Z,11.82
2022-08-05T02:10:39.533Z,11.63
2022-08-05T02:13:16.513Z,10.82
2022-08-05T02:15:53.992Z,5.90
2022-08-05T02:18:34.331Z,13.20
2022-08-05T02:21:26.463Z,9.45
2022-08-05T02:23:59.363Z,10.07
2022-08-05T02:26:53.959Z,8.32
2022-08-05T02:29:58.809Z,7.07
2022-08-05T02:32:12.838Z,8.68
2022-08-05T02:34:54.909Z,10.50
2022-08-05T02:37:23.419Z,6.00
2022-08-05T02:39:53.544Z,8.40
2022-08-05T02:42:27.553Z,7.72
2022-08-05T02:44:56.820Z,6.95
2022-08-05T02:47:25.833Z,9.68
2022-08-05T02:50:13.812Z,5.88
2022-08-05T02:52:46.769Z,9.10
2022-08-05T02:55:14.362Z,9.75
2022-08-05T02:58:20.021Z,10.73
2022-08-05T03:00:35.185Z,8.43
2022-08-05T03:03:07.738Z,7.93
2022-08-05T03:06:54.059Z,7.15
2022-08-05T03:08:29.527Z,7.38
2022-08-05T03:11:41.156Z,7.18
2022-08-05T03:13:52.058Z,7.13
2022-08-05T03:16:29.930Z,8.18
2022-08-05T03:18:59.477Z,7.47
2022-08-05T03:21:28.679Z,7.95
2022-08-05T03:23:57.082Z,7.55
2022-08-05T03:26:30.417Z,8.60
2022-08-05T03:28:59.139Z,7.93
2022-08-05T03:31:56.978Z,9.65
2022-08-05T03:34:13.655Z,6.60
2022-08-05T03:36:41.170Z,7.38
2022-08-05T03:39:13.089Z,11.40
2022-08-05T03:41:47.209Z,13.10
2022-08-05T03:44:19.923Z,11.30
2022-08-05T03:46:47.039Z,8.50
2022-08-05T03:49:15.437Z,9.68
2022-08-05T03:52:39.424Z,10.80
2022-08-05T03:55:51.363Z,8.75
2022-08-05T03:57:44.511Z,9.32
2022-08-05T04:00:16.447Z,11.10
2022-08-05T04:02:58.006Z,8.75
2022-08-05T04:05:33.943Z,7.00
2022-08-05T04:08:14.923Z,10.02
2022-08-05T04:10:58.399Z,11.55
2022-08-05T04:13:27.830Z,7.43
2022-08-05T04:16:14.364Z,16.38
2022-08-05T04:18:41.349Z,7.72
2022-08-05T04:21:10.927Z,9.73
2022-08-05T04:23:57.204Z,6.68
2022-08-05T04:26:26.052Z,14.13
2022-08-05T04:28:59.513Z,9.52
2022-08-05T04:31:27.568Z,11.95
2022-08-05T04:34:18.259Z,5.93
2022-08-05T04:36:50.138Z,8.65
2022-08-05T04:39:18.588Z,7.88
2022-08-05T04:41:48.058Z,10.90
2022-08-05T04:44:21.024Z,9.43
2022-08-05T04:46:51.191Z,6.07
2022-08-05T04:49:24.909Z,6.13
2022-08-05T04:52:07.699Z,12.32
2022-08-05T04:54:34.728Z,10.77
2022-08-05T04:57:01.580Z,7.30
2022-08-05T04:59:40.511Z,11.38
2022-08-05T05:02:37.255Z,8.07
2022-08-05T05:05:02.237Z,7.25
2022-08-05T05:07:32.210Z,6.53
2022-08-05T05:10:04.141Z,7.22
2022-08-05T05:12:31.227Z,8.65
2022-08-05T05:14:58.108Z,9.55
2022-08-05T05:17:55.748Z,5.43
2022-08-05T05:20:13.242Z,5.45
2022-08-05T05:22:41.136Z,4.10
2022-08-05T05:25:16.006Z,6.70
2022-08-05T05:27:53.575Z,6.22
2022-08-05T05:30:31.185Z,7.85
2022-08-05T05:33:08.864Z,6.15
2022-08-05T05:35:47.894Z,7.15
2022-08-05T05:38:22.758Z,8.13
2022-08-05T05:40:55.770Z,11.55
2022-08-05T05:43:54.043Z,6.28
2022-08-05T05:46:15.982Z,5.07
2022-08-05T05:48:46.066Z,7.10
2022-08-05T05:51:22.593Z,5.47
2022-08-05T05:53:58.058Z,4.20
2022-08-05T05:56:32.883Z,11.45
2022-08-05T05:59:06.649Z,5.07
2022-08-05T06:01:41.198Z,4.82
2022-08-05T06:04:24.981Z,7.95
2022-08-05T06:06:51.959Z,6.63
2022-08-05T06:09:25.899Z,3.33
2022-08-05T06:12:06.143Z,6.13
2022-08-05T06:14:36.821Z,1.90
2022-08-05T06:17:24.459Z,5.38
2022-08-05T06:19:57.028Z,7.80
2022-08-05T06:22:33.674Z,6.70
2022-08-05T06:25:24.520Z,5.65
2022-08-05T06:28:11.584Z,3.95
2022-08-05T06:30:38.576Z,3.53
2022-08-05T06:33:05.578Z,6.15
2022-08-05T06:36:03.747Z,5.63
2022-08-05T06:38:35.961Z,4.28
2022-08-05T06:41:04.985Z,5.68
2022-08-05T06:43:58.622Z,3.60
2022-08-05T06:46:18.977Z,3.30
2022-08-05T06:48:55.494Z,3.35
2022-08-05T06:51:29.408Z,7.75
2022-08-05T06:54:02.452Z,5.13
2022-08-05T06:56:34.594Z,4.78
2022-08-05T06:59:03.790Z,2.28
2022-08-05T07:01:35.731Z,5.03
2022-08-05T07:04:03.868Z,3.45
2022-08-05T07:06:31.895Z,3.75
2022-08-05T07:08:59.490Z,3.40
2022-08-05T07:11:31.114Z,4.40
2022-08-05T07:14:20.489Z,5.18
2022-08-05T07:18:00.418Z,2.75
2022-08-05T07:20:16.851Z,4.53
2022-08-05T07:22:34.975Z,4.22
2022-08-05T07:25:23.337Z,4.20
2022-08-05T07:27:58.018Z,3.63
2022-08-05T07:30:39.109Z,4.05
2022-08-05T07:33:16.378Z,2.60
2022-08-05T07:36:04.716Z,2.70
2022-08-05T07:38:43.160Z,3.55
2022-08-05T07:42:08.400Z,4.95
2022-08-05T07:44:02.902Z,5.38
2022-08-05T07:46:33.676Z,5.45
2022-08-05T07:49:05.959Z,3.63
2022-08-05T07:51:36.739Z,3.72
2022-08-05T07:54:05.565Z,3.45
2022-08-05T07:57:01.345Z,1.65
2022-08-05T07:59:21.873Z,5.03
2022-08-05T08:01:52.292Z,3.88
2022-08-05T08:04:34.371Z,4.55
2022-08-05T08:07:07.181Z,2.15
2022-08-05T08:09:34.944Z,2.42
2022-08-05T08:12:11.015Z,6.07
2022-08-05T08:14:46.887Z,1.67
2022-08-05T08:17:15.855Z,3.85
2022-08-05T08:20:22.756Z,9.68
2022-08-05T08:22:32.546Z,2.78
2022-08-05T08:25:03.165Z,1.95
2022-08-05T08:27:38.000Z,3.28
2022-08-05T08:30:28.589Z,2.10
2022-08-05T08:32:58.513Z,5.00
2022-08-05T08:35:34.771Z,3.03
2022-08-05T08:38:02.233Z,1.55
2022-08-05T08:40:33.102Z,3.70
2022-08-05T08:43:21.025Z,4.13
2022-08-05T08:45:50.148Z,4.25
2022-08-05T08:48:41.477Z,3.78
2022-08-05T08:52:01.624Z,4.57
2022-08-05T08:53:54.250Z,4.25
2022-08-05T08:56:23.562Z,5.57
2022-08-05T08:58:54.787Z,1.17
2022-08-05T09:01:25.644Z,1.58
2022-08-05T09:03:57.294Z,5.63
2022-08-05T09:06:30.613Z,3.40
2022-08-05T09:09:01.999Z,0.52
2022-08-05T09:11:52.416Z,2.10
2022-08-05T09:14:56.347Z,5.50
2022-08-05T09:17:41.041Z,1.98
2022-08-05T09:20:02.503Z,2.25
2022-08-05T09:23:07.904Z,2.80
2022-08-05T09:26:01.374Z,2.38
2022-08-05T09:28:32.381Z,0.60
2022-08-05T09:31:22.339Z,2.53
2022-08-05T09:34:01.772Z,4.97
2022-08-05T09:36:59.424Z,7.05
2022-08-05T09:39:41.897Z,1.77
2022-08-05T09:42:20.247Z,1.98
2022-08-05T09:44:52.422Z,2.88
2022-08-05T09:47:34.907Z,1.58
2022-08-05T09:50:05.388Z,1.30
2022-08-05T09:52:36.246Z,3.38
2022-08-05T09:55:57.296Z,3.53
2022-08-05T09:58:00.303Z,0.73
2022-08-05T10:00:30.469Z,2.28
2022-08-05T10:02:59.014Z,2.75
2022-08-05T10:05:28.402Z,1.95
2022-08-05T10:08:34.893Z,3.40
2022-08-05T10:10:50.231Z,3.88
2022-08-05T10:13:47.516Z,2.00
2022-08-05T10:16:37.582Z,0.77
2022-08-05T10:19:09.438Z,5.28
2022-08-05T10:21:40.896Z,1.60
2022-08-05T10:24:13.700Z,3.38
2022-08-05T10:26:48.983Z,0.98
2022-08-05T10:29:20.355Z,3.60
2022-08-05T10:32:56.258Z,5.57
2022-08-05T10:34:40.716Z,2.95
2022-08-05T10:37:08.230Z,1.35
2022-08-05T10:39:59.194Z,1.73
2022-08-05T10:42:34.238Z,0.52
2022-08-05T10:45:21.387Z,0.80
2022-08-05T10:47:56.157Z,0.82
2022-08-05T10:50:59.077Z,0.88
2022-08-05T10:53:51.722Z,0.80
2022-08-05T10:56:29.624Z,1.35
2022-08-05T10:59:12.340Z,3.88
2022-08-05T11:02:04.676Z,3.15
2022-08-05T11:04:42.406Z,0.80
2022-08-05T11:07:12.039Z,1.63
2022-08-05T11:10:03.820Z,2.58
2022-08-05T11:12:45.365Z,1.83
2022-08-05T11:15:24.412Z,3.83
2022-08-05T11:18:30.016Z,5.32
2022-08-05T11:20:59.380Z,1.23
2022-08-05T11:24:05.321Z,3.33
2022-08-05T11:26:38.271Z,0.50
2022-08-05T11:29:13.245Z,0.80
2022-08-05T11:31:58.022Z,1.42
2022-08-05T11:34:51.349Z,1.95
2022-08-05T11:38:30.298Z,2.95
2022-08-05T11:41:03.671Z,1.05
2022-08-05T11:44:12.346Z,1.60
2022-08-05T11:47:09.241Z,6.25
2022-08-05T11:49:38.301Z,0.85
2022-08-05T11:52:08.654Z,0.82
2022-08-05T11:54:40.412Z,1.85
2022-08-05T11:57:24.345Z,0.93
2022-08-05T11:59:52.941Z,2.05
2022-08-05T12:02:31.659Z,1.48
2022-08-05T12:05:07.130Z,1.33
2022-08-05T12:08:09.256Z,0.40
2022-08-05T12:10:42.909Z,0.20
2022-08-05T12:13:15.551Z,0.40
2022-08-05T12:15:45.236Z,1.88
2022-08-05T12:18:32.456Z,1.70
2022-08-05T12:21:13.600Z,2.20
2022-08-05T12:24:08.641Z,0.47
2022-08-05T12:26:38.610Z,0.40
2022-08-05T12:29:09.521Z,1.40
2022-08-05T12:31:46.105Z,0.75
2022-08-05T12:34:21.569Z,2.55
2022-08-05T12:39:19.403Z,0.70
2022-08-05T12:41:46.598Z,1.75
2022-08-05T12:44:32.676Z,1.50
2022-08-05T12:47:01.786Z,0.20
2022-08-05T12:50:04.311Z,0.30
2022-08-05T12:52:39.679Z,0.45
2022-08-05T12:55:23.821Z,7.10
2022-08-05T12:58:52.427Z,1.05
2022-08-05T13:02:00.326Z,0.30
2022-08-05T13:03:32.352Z,0.65
2022-08-05T13:06:01.215Z,1.15
2022-08-05T13:08:32.821Z,1.38
2022-08-05T13:11:04.309Z,0.30
2022-08-05T13:14:06.836Z,0.17
2022-08-05T13:16:20.270Z,0.28
2022-08-05T13:18:51.757Z,0.30
2022-08-05T13:21:18.579Z,6.03
2022-08-05T13:23:52.157Z,1.17
2022-08-05T13:26:21.840Z,0.90
2022-08-05T13:28:56.995Z,3.40
2022-08-05T13:31:33.981Z,1.27
2022-08-05T13:34:22.648Z,2.75
2022-08-05T13:36:53.653Z,4.03
2022-08-05T13:40:13.215Z,1.42
2022-08-05T13:42:14.373Z,4.22
2022-08-05T13:44:45.327Z,1.85
2022-08-05T13:47:35.932Z,0.63
2022-08-05T13:50:04.752Z,1.08
2022-08-05T13:52:35.352Z,0.95
2022-08-05T13:55:07.457Z,1.45
2022-08-05T13:57:51.235Z,0.63
2022-08-05T14:00:27.371Z,1.02
2022-08-05T14:03:01.195Z,1.25
2022-08-05T14:05:47.904Z,2.00
2022-08-05T14:08:20.763Z,1.88
2022-08-05T14:11:03.112Z,2.15
2022-08-05T14:13:41.384Z,6.47
2022-08-05T14:16:11.376Z,0.63
2022-08-05T14:18:38.639Z,3.85
2022-08-05T14:22:07.769Z,0.98
2022-08-05T14:23:52.417Z,1.30
2022-08-05T14:26:36.946Z,2.15
2022-08-05T14:29:16.244Z,2.38
2022-08-05T14:32:02.770Z,0.38
2022-08-05T14:34:35.040Z,0.17
2022-08-05T14:37:04.085Z,1.77
2022-08-05T14:39:49.648Z,1.02
2022-08-05T14:42:21.705Z,4.28
2022-08-05T14:44:49.679Z,1.67
2022-08-05T14:47:16.993Z,1.35
2022-08-05T14:50:17.721Z,1.65
2022-08-05T14:52:53.115Z,1.80
2022-08-05T14:55:24.733Z,1.70
2022-08-05T14:57:54.337Z,2.00
2022-08-05T15:00:27.746Z,1.90
2022-08-05T15:02:55.424Z,1.30
2022-08-05T15:05:22.455Z,0.40
2022-08-05T15:08:09.084Z,0.57
2022-08-05T15:10:46.101Z,1.27
2022-08-05T15:13:13.886Z,2.05
2022-08-05T15:15:55.106Z,0.85
2022-08-05T15:18:23.390Z,1.58
2022-08-05T15:20:50.938Z,0.55
2022-08-05T15:23:18.172Z,1.55
2022-08-05T15:25:52.692Z,1.38
2022-08-05T15:28:27.037Z,0.28
2022-08-05T15:30:55.001Z,2.38
2022-08-05T15:34:05.170Z,1.20
2022-08-05T15:36:16.807Z,1.20
2022-08-05T15:38:45.233Z,0.47
2022-08-05T15:41:21.927Z,0.82
2022-08-05T15:43:54.916Z,1.52
2022-08-05T15:46:25.011Z,1.23
2022-08-05T15:48:58.598Z,1.75
2022-08-05T15:52:09.676Z,0.90
2022-08-05T15:54:16.693Z,4.35
2022-08-05T15:56:43.762Z,1.98
2022-08-05T15:59:20.252Z,2.28
2022-08-05T16:01:52.915Z,3.60
2022-08-05T16:04:25.166Z,0.93
2022-08-05T16:06:54.112Z,1.65
2022-08-05T16:09:23.581Z,1.27
2022-08-05T16:11:53.183Z,1.45
2022-08-05T16:14:21.759Z,1.00
2022-08-05T16:16:49.938Z,3.97
2022-08-05T16:19:25.895Z,1.15
2022-08-05T16:22:04.063Z,4.32
2022-08-05T16:24:41.068Z,0.80
2022-08-05T16:27:18.020Z,1.52
2022-08-05T16:29:50.299Z,1.42
2022-08-05T16:32:28.803Z,1.20
2022-08-05T16:34:56.909Z,2.42
2022-08-05T16:38:16.429Z,1.77
2022-08-05T16:40:20.251Z,0.50
2022-08-05T16:42:52.644Z,1.88
2022-08-05T16:46:05.929Z,1.00
2022-08-05T16:48:07.039Z,0.63
2022-08-05T16:50:37.165Z,1.30
2022-08-05T16:53:12.703Z,1.17
2022-08-05T16:55:50.329Z,2.85
2022-08-05T16:58:19.762Z,0.30
2022-08-05T17:00:49.583Z,4.68
2022-08-05T17:03:20.057Z,0.90
2022-08-05T17:05:54.080Z,2.15
2022-08-05T17:08:36.278Z,0.43
2022-08-05T17:11:17.455Z,0.73
2022-08-05T17:13:45.602Z,1.27
2022-08-05T17:16:30.168Z,1.33
2022-08-05T17:19:00.046Z,3.08
2022-08-05T17:21:36.418Z,3.40
2022-08-05T17:24:14.343Z,2.70
2022-08-05T17:26:53.560Z,3.70
2022-08-05T17:29:33.195Z,2.75
2022-08-05T17:32:11.175Z,0.73
2022-08-05T17:34:39.364Z,1.33
2022-08-05T17:37:40.340Z,1.70
2022-08-05T17:39:55.243Z,2.17
2022-08-05T17:42:28.936Z,0.82
2022-08-05T17:44:58.702Z,3.92
2022-08-05T17:47:27.218Z,1.65
2022-08-05T17:50:03.447Z,4.63
2022-08-05T17:52:32.455Z,0.60
2022-08-05T17:55:00.228Z,0.60
2022-08-05T17:57:27.950Z,0.70
2022-08-05T18:00:04.917Z,2.72
2022-08-05T18:02:33.242Z,2.10
2022-08-05T18:05:03.710Z,0.40
2022-08-05T18:07:41.421Z,2.15
2022-08-05T18:10:11.176Z,1.08
2022-08-05T18:12:38.891Z,2.45
2022-08-05T18:15:06.596Z,0.95
2022-08-05T18:17:58.776Z,1.25
2022-08-05T18:20:29.421Z,2.72
2022-08-05T18:23:00.709Z,0.73
2022-08-05T18:25:38.963Z,1.33
2022-08-05T18:28:07.320Z,0.38
2022-08-05T18:30:39.175Z,1.65
2022-08-05T18:33:08.507Z,5.70
2022-08-05T18:36:00.609Z,2.42
2022-08-05T18:38:28.666Z,0.75
2022-08-05T18:41:56.092Z,0.82
2022-08-05T18:43:42.837Z,2.17
2022-08-05T18:46:20.039Z,0.95
2022-08-05T18:48:52.154Z,2.20
2022-08-05T18:52:06.808Z,1.55
2022-08-05T18:54:31.324Z,2.47
2022-08-05T18:57:02.481Z,3.67
2022-08-05T18:59:42.633Z,0.77
2022-08-05T19:02:26.785Z,3.25
2022-08-05T19:06:11.605Z,1.85
2022-08-05T19:07:55.207Z,2.85
2022-08-05T19:10:26.576Z,1.10
2022-08-05T19:12:56.723Z,1.73
2022-08-05T19:15:56.852Z,0.90
2022-08-05T19:18:20.638Z,2.67
2022-08-05T19:20:51.512Z,1.13
2022-08-05T19:24:04.416Z,1.33
2022-08-05T19:26:05.479Z,1.67
2022-08-05T19:28:42.086Z,3.55
2022-08-05T19:31:13.168Z,3.53
2022-08-05T19:33:48.734Z,0.93
2022-08-05T19:36:25.055Z,2.60
2022-08-05T19:38:53.847Z,2.45
2022-08-05T19:41:22.077Z,0.70
2022-08-05T19:44:13.500Z,0.47
2022-08-05T19:46:41.621Z,0.47
2022-08-05T19:49:12.451Z,1.25
2022-08-05T19:52:04.823Z,2.45
2022-08-05T19:54:32.812Z,7.38
2022-08-05T19:57:08.516Z,6.18
2022-08-05T19:59:54.000Z,0.43
2022-08-05T20:02:27.103Z,1.00
2022-08-05T20:04:58.343Z,1.77
2022-08-05T20:07:45.964Z,5.05
2022-08-05T20:10:16.006Z,0.98
2022-08-05T20:12:46.454Z,3.50
2022-08-05T20:15:48.816Z,2.85
2022-08-05T20:18:10.075Z,4.38
2022-08-05T20:20:47.277Z,2.47
2022-08-05T20:23:14.305Z,0.77
2022-08-05T20:25:42.342Z,0.70
2022-08-05T20:28:13.841Z,2.72
2022-08-05T20:30:41.816Z,1.77
2022-08-05T20:33:08.913Z,4.57
2022-08-05T20:35:40.582Z,0.93
2022-08-05T20:38:20.005Z,1.58
2022-08-05T20:40:55.382Z,0.95
2022-08-05T20:43:58.285Z,3.03
2022-08-05T20:46:18.422Z,1.65
2022-08-05T20:48:51.926Z,3.03
2022-08-05T20:51:18.772Z,0.93
2022-08-05T20:53:56.273Z,1.30
2022-08-05T20:56:29.733Z,0.98
2022-08-05T20:59:00.075Z,1.65
2022-08-05T21:01:38.823Z,2.72
2022-08-05T21:04:10.678Z,0.80
2022-08-05T21:06:45.320Z,3.40
2022-08-05T21:09:15.684Z,3.60
2022-08-05T21:12:07.206Z,3.75
2022-08-05T21:14:34.667Z,2.05
2022-08-05T21:17:02.241Z,0.90
2022-08-05T21:19:47.268Z,0.85
2022-08-05T21:22:23.538Z,2.17
2022-08-05T21:24:52.630Z,1.42
2022-08-05T21:27:24.792Z,2.67
2022-08-05T21:29:52.672Z,2.17
2022-08-05T21:32:21.096Z,0.85
2022-08-05T21:35:06.858Z,2.60
2022-08-05T21:37:41.303Z,1.08
2022-08-05T21:40:13.089Z,1.23
2022-08-05T21:42:45.126Z,1.23
2022-08-05T21:45:24.556Z,0.52
2022-08-05T21:47:56.018Z,3.60
2022-08-05T21:50:25.938Z,1.42
2022-08-05T21:52:53.157Z,3.47
2022-08-05T21:56:00.982Z,4.00
2022-08-05T21:58:10.416Z,0.47
2022-08-05T22:00:38.850Z,1.08
2022-08-05T22:03:07.419Z,1.55
2022-08-05T22:05:48.869Z,1.05
2022-08-05T22:08:22.553Z,2.65
2022-08-05T22:10:53.234Z,0.60
2022-08-05T22:14:19.777Z,1.90
2022-08-05T22:16:32.228Z,0.65
2022-08-05T22:18:54.360Z,3.80
2022-08-05T22:21:25.747Z,4.75
2022-08-05T22:24:13.292Z,0.65
2022-08-05T22:27:17.388Z,7.75
2022-08-05T22:29:44.747Z,2.00
2022-08-05T22:32:17.288Z,2.85
2022-08-05T22:34:46.111Z,1.73
2022-08-05T22:37:12.984Z,2.53
2022-08-05T22:39:39.847Z,1.77
2022-08-05T22:42:12.476Z,1.85
2022-08-05T22:44:48.325Z,7.22
2022-08-05T22:47:29.133Z,2.78
2022-08-05T22:50:20.226Z,1.08
2022-08-05T22:52:49.979Z,2.42
2022-08-05T22:55:21.339Z,2.63
2022-08-05T22:57:50.416Z,1.90
2022-08-05T23:00:20.630Z,2.22
2022-08-05T23:02:49.404Z,2.05
2022-08-05T23:05:16.977Z,4.28
2022-08-05T23:07:49.531Z,2.13
2022-08-05T23:10:20.116Z,3.60
2022-08-05T23:12:51.271Z,2.10
2022-08-05T23:15:21.511Z,4.68
2022-08-05T23:18:01.532Z,3.40
2022-08-05T23:20:33.256Z,1.08
2022-08-05T23:25:51.046Z,4.65
2022-08-05T23:28:22.168Z,3.55
2022-08-05T23:30:53.583Z,5.82
2022-08-05T23:33:26.141Z,2.65
2022-08-05T23:36:10.441Z,4.28
2022-08-05T23:38:37.940Z,0.70
2022-08-05T23:41:05.022Z,3.17
2022-08-05T23:44:02.976Z,3.45
2022-08-05T23:46:21.223Z,2.45
2022-08-05T23:48:59.988Z,7.07
2022-08-05T23:51:53.291Z,2.05
2022-08-05T23:54:33.897Z,9.55
2022-08-05T23:57:05.745Z,6.20
2022-08-05T23:59:37.574Z,4.50
